createdAt,value
2022-07-28T00:01:55.883Z,101409.84
2022-07-28T00:04:25.103Z,101405.91
2022-07-28T00:06:54.415Z,101407.41
2022-07-28T00:09:23.637Z,101381.53
2022-07-28T00:11:54.925Z,101405.13
2022-07-28T00:14:26.194Z,101399.44
2022-07-28T00:16:55.682Z,101400.94
2022-07-28T00:19:24.961Z,101349.34
2022-07-28T00:21:54.299Z,101400.00
2022-07-28T00:24:24.592Z,101406.34
2022-07-28T00:26:53.957Z,101355.31
2022-07-28T00:29:23.449Z,101408.66
2022-07-28T00:31:54.423Z,101400.81
2022-07-28T00:34:26.570Z,101358.81
2022-07-28T00:36:56.334Z,101396.66
2022-07-28T00:39:25.564Z,101378.66
2022-07-28T00:41:54.836Z,101379.81
2022-07-28T00:44:24.269Z,101381.09
2022-07-28T00:46:55.085Z,101396.09
2022-07-28T00:49:24.608Z,101390.91
2022-07-28T00:51:54.369Z,101394.81
2022-07-28T00:54:23.672Z,101378.78
2022-07-28T00:56:53.530Z,101392.06
2022-07-28T00:59:22.715Z,101393.19
2022-07-28T01:01:53.212Z,101386.41
2022-07-28T01:04:26.253Z,101384.44
2022-07-28T01:07:03.807Z,101380.19
2022-07-28T01:09:54.350Z,101379.38
2022-07-28T01:12:47.173Z,101382.94
2022-07-28T01:15:26.773Z,101362.78
2022-07-28T01:18:06.394Z,101370.22
2022-07-28T01:20:43.212Z,101372.78
2022-07-28T01:24:06.370Z,101373.59
2022-07-28T01:26:53.048Z,101370.47
2022-07-28T01:30:22.492Z,101361.38
2022-07-28T01:33:02.768Z,101350.31
2022-07-28T01:35:38.192Z,101362.06
2022-07-28T01:38:11.674Z,101359.53
2022-07-28T01:40:46.148Z,101353.53
2022-07-28T01:43:24.864Z,101346.50
2022-07-28T01:45:57.699Z,101343.56
2022-07-28T01:48:28.925Z,101337.59
2022-07-28T01:50:59.051Z,101319.59
2022-07-28T01:53:32.018Z,101350.06
2022-07-28T01:56:08.923Z,101340.25
2022-07-28T01:58:40.148Z,101346.84
2022-07-28T02:01:13.371Z,101341.31
2022-07-28T02:03:45.027Z,101332.78
2022-07-28T02:06:16.763Z,101291.69
2022-07-28T02:08:48.560Z,101326.44
2022-07-28T02:11:35.561Z,101324.94
2022-07-28T02:14:05.833Z,101322.88
2022-07-28T02:16:36.904Z,101308.53
2022-07-28T02:19:06.967Z,101318.25
2022-07-28T02:21:38.077Z,101310.50
2022-07-28T02:24:09.298Z,101312.72
2022-07-28T02:26:43.338Z,101294.59
2022-07-28T02:29:40.413Z,101312.91
2022-07-28T02:32:27.339Z,101301.88
2022-07-28T02:35:02.144Z,101305.47
2022-07-28T02:37:38.916Z,101300.91
2022-07-28T02:40:14.921Z,101303.56
2022-07-28T02:42:49.220Z,101301.47
2022-07-28T02:45:25.555Z,101298.59
2022-07-28T02:48:03.099Z,101292.72
2022-07-28T02:50:32.706Z,101289.50
2022-07-28T02:53:15.509Z,101284.53
2022-07-28T02:55:51.012Z,101304.13
2022-07-28T02:58:23.991Z,101305.72
2022-07-28T03:00:55.928Z,101288.91
2022-07-28T03:03:27.180Z,101290.50
2022-07-28T03:05:57.002Z,101290.97
2022-07-28T03:08:26.380Z,101295.03
2022-07-28T03:11:10.087Z,101270.09
2022-07-28T03:13:39.959Z,101269.31
2022-07-28T03:16:09.598Z,101294.22
2022-07-28T03:18:40.271Z,101287.28
2022-07-28T03:21:11.289Z,101239.22
2022-07-28T03:23:45.229Z,101274.75
2022-07-28T03:26:20.634Z,101283.47
2022-07-28T03:28:52.660Z,101273.59
2022-07-28T03:31:23.090Z,101277.16
2022-07-28T03:33:54.007Z,101278.75
2022-07-28T03:36:30.471Z,101285.44
2022-07-28T03:39:04.131Z,101280.16
2022-07-28T03:41:35.008Z,101285.78
2022-07-28T03:44:04.891Z,101287.75
2022-07-28T03:46:34.574Z,101282.41
2022-07-28T03:49:09.699Z,101289.69
2022-07-28T03:51:39.827Z,101286.34
2022-07-28T03:54:09.212Z,101298.34
2022-07-28T03:56:38.566Z,101292.81
2022-07-28T03:59:07.814Z,101295.91
2022-07-28T04:01:37.230Z,101288.28
2022-07-28T04:04:08.387Z,101289.59
2022-07-28T04:06:37.789Z,101267.00
2022-07-28T04:09:07.098Z,101244.28
2022-07-28T04:11:36.452Z,101269.09
2022-07-28T04:14:05.898Z,101262.59
2022-07-28T04:16:35.334Z,101233.44
2022-07-28T04:19:04.826Z,101273.31
2022-07-28T04:21:35.444Z,101266.88
2022-07-28T04:24:04.737Z,101280.47
2022-07-28T04:26:33.934Z,101275.78
2022-07-28T04:29:03.562Z,101268.50
2022-07-28T04:31:33.109Z,101274.13
2022-07-28T04:34:02.536Z,101277.25
2022-07-28T04:36:32.517Z,101265.38
2022-07-28T04:39:03.481Z,101271.06
2022-07-28T04:41:32.786Z,101270.91
2022-07-28T04:44:02.018Z,101270.25
2022-07-28T04:46:31.349Z,101267.00
2022-07-28T04:49:00.694Z,101273.22
2022-07-28T04:51:29.985Z,101251.56
2022-07-28T04:53:59.254Z,101268.97
2022-07-28T04:56:29.909Z,101243.28
2022-07-28T04:58:59.574Z,101268.03
2022-07-28T05:01:29.845Z,101264.66
2022-07-28T05:03:59.186Z,101268.97
2022-07-28T05:06:28.568Z,101266.09
2022-07-28T05:08:58.344Z,101274.38
2022-07-28T05:11:29.165Z,101249.25
2022-07-28T05:13:58.526Z,101268.97
2022-07-28T05:16:27.803Z,101259.88
2022-07-28T05:18:57.364Z,101264.72
2022-07-28T05:21:26.726Z,101258.72
2022-07-28T05:23:56.244Z,101256.91
2022-07-28T05:26:27.012Z,101262.88
2022-07-28T05:29:00.060Z,101265.44
2022-07-28T05:31:29.593Z,101267.84
2022-07-28T05:33:58.947Z,101226.81
2022-07-28T05:36:31.049Z,101251.13
2022-07-28T05:39:00.389Z,101266.59
2022-07-28T05:41:29.986Z,101269.72
2022-07-28T05:44:01.823Z,101208.97
2022-07-28T05:46:31.109Z,101268.38
2022-07-28T05:49:00.825Z,101227.66
2022-07-28T05:51:30.087Z,101262.50
2022-07-28T05:53:59.286Z,101264.56
2022-07-28T05:56:28.958Z,101274.16
2022-07-28T05:59:00.187Z,101257.66
2022-07-28T06:01:29.484Z,101242.06
2022-07-28T06:04:25.911Z,101266.78
2022-07-28T06:06:48.722Z,101268.75
2022-07-28T06:09:17.977Z,101261.25
2022-07-28T06:11:47.248Z,101266.31
2022-07-28T06:14:18.316Z,101264.81
2022-07-28T06:16:51.320Z,101264.25
2022-07-28T06:19:20.903Z,101271.53
2022-07-28T06:21:52.630Z,101270.84
2022-07-28T06:24:21.871Z,101274.75
2022-07-28T06:26:52.843Z,101269.69
2022-07-28T06:29:24.625Z,101270.94
2022-07-28T06:31:53.888Z,101273.69
2022-07-28T06:34:23.205Z,101236.38
2022-07-28T06:36:53.081Z,101282.38
2022-07-28T06:39:22.270Z,101288.81
2022-07-28T06:41:51.753Z,101275.34
2022-07-28T06:44:23.747Z,101269.91
2022-07-28T06:46:54.193Z,101284.44
2022-07-28T06:49:23.675Z,101284.44
2022-07-28T06:51:52.995Z,101241.22
2022-07-28T06:54:22.250Z,101277.97
2022-07-28T06:56:52.331Z,101286.72
2022-07-28T06:59:23.511Z,101276.97
2022-07-28T07:01:52.776Z,101288.81
2022-07-28T07:04:22.089Z,101271.53
2022-07-28T07:06:51.395Z,101292.75
2022-07-28T07:09:20.676Z,101286.59
2022-07-28T07:11:50.154Z,101289.50
2022-07-28T07:14:19.619Z,101288.34
2022-07-28T07:16:50.879Z,101288.34
2022-07-28T07:19:20.808Z,101282.13
2022-07-28T07:21:50.630Z,101287.06
2022-07-28T07:24:20.325Z,101265.50
2022-07-28T07:26:51.712Z,101289.78
2022-07-28T07:29:23.004Z,101276.75
2022-07-28T07:31:53.847Z,101285.72
2022-07-28T07:34:23.117Z,101283.41
2022-07-28T07:36:52.693Z,101277.97
2022-07-28T07:39:21.945Z,101288.88
2022-07-28T07:41:51.509Z,101271.47
2022-07-28T07:44:20.771Z,101285.28
2022-07-28T07:46:50.271Z,101286.09
2022-07-28T07:49:20.983Z,101278.94
2022-07-28T07:51:50.405Z,101286.16
2022-07-28T07:54:20.603Z,101287.28
2022-07-28T07:56:49.774Z,101291.13
2022-07-28T07:59:18.912Z,101287.72
2022-07-28T08:01:54.363Z,101285.56
2022-07-28T08:04:26.284Z,101287.06
2022-07-28T08:06:58.274Z,101278.69
2022-07-28T08:09:27.933Z,101281.91
2022-07-28T08:11:57.242Z,101288.19
2022-07-28T08:14:26.592Z,101282.34
2022-07-28T08:16:56.862Z,101282.00
2022-07-28T08:19:28.014Z,101284.31
2022-07-28T08:21:57.382Z,101289.63
2022-07-28T08:24:27.686Z,101291.47
2022-07-28T08:27:02.626Z,101293.00
2022-07-28T08:29:32.097Z,101287.47
2022-07-28T08:32:03.898Z,101282.72
2022-07-28T08:34:35.586Z,101279.59
2022-07-28T08:37:07.322Z,101287.28
2022-07-28T08:39:37.572Z,101289.00
2022-07-28T08:42:10.383Z,101294.06
2022-07-28T08:44:48.979Z,101286.81
2022-07-28T08:47:18.898Z,101285.06
2022-07-28T08:49:51.330Z,101286.28
2022-07-28T08:52:21.751Z,101286.00
2022-07-28T08:54:52.311Z,101283.50
2022-07-28T08:57:27.662Z,101284.31
2022-07-28T08:59:57.235Z,101286.44
2022-07-28T09:02:29.243Z,101288.72
2022-07-28T09:05:01.022Z,101283.53
2022-07-28T09:07:30.454Z,101283.91
2022-07-28T09:10:02.726Z,101286.06
2022-07-28T09:12:32.047Z,101276.81
2022-07-28T09:15:03.251Z,101285.19
2022-07-28T09:17:33.815Z,101261.22
2022-07-28T09:20:10.417Z,101264.44
2022-07-28T09:23:00.215Z,101264.81
2022-07-28T09:25:30.879Z,101239.00
2022-07-28T09:28:09.818Z,101269.47
2022-07-28T09:30:53.640Z,101271.44
2022-07-28T09:33:41.956Z,101270.56
2022-07-28T09:36:17.482Z,101260.25
2022-07-28T09:38:46.986Z,101264.53
2022-07-28T09:41:19.163Z,101252.72
2022-07-28T09:43:54.439Z,101259.47
2022-07-28T09:46:29.240Z,101251.34
2022-07-28T09:49:02.496Z,101250.25
2022-07-28T09:51:34.381Z,101243.28
2022-07-28T09:54:13.763Z,101261.78
2022-07-28T09:56:46.347Z,101251.09
2022-07-28T09:59:18.243Z,101247.00
2022-07-28T10:01:56.707Z,101242.31
2022-07-28T10:04:44.486Z,101256.31
2022-07-28T10:07:17.409Z,101250.34
2022-07-28T10:09:58.805Z,101256.91
2022-07-28T10:12:30.727Z,101253.72
2022-07-28T10:15:32.581Z,101255.47
2022-07-28T10:18:02.070Z,101254.69
2022-07-28T10:20:32.885Z,101255.97
2022-07-28T10:23:06.507Z,101243.97
2022-07-28T10:25:36.862Z,101258.69
2022-07-28T10:28:07.082Z,101254.63
2022-07-28T10:30:41.481Z,101253.03
2022-07-28T10:33:17.351Z,101257.94
2022-07-28T10:35:55.234Z,101262.66
2022-07-28T10:38:31.548Z,101257.72
2022-07-28T10:41:03.836Z,101258.22
2022-07-28T10:43:33.613Z,101260.50
2022-07-28T10:46:07.346Z,101250.31
2022-07-28T10:48:39.192Z,101248.72
2022-07-28T10:51:09.368Z,101251.78
2022-07-28T10:53:48.228Z,101258.09
2022-07-28T10:56:25.384Z,101259.53
2022-07-28T10:59:07.591Z,101262.91
2022-07-28T11:01:53.863Z,101264.56
2022-07-28T11:04:55.500Z,101274.88
2022-07-28T11:07:24.927Z,101251.31
2022-07-28T11:10:15.460Z,101273.25
2022-07-28T11:12:49.581Z,101257.69
2022-07-28T11:15:35.153Z,101263.75
2022-07-28T11:18:10.906Z,101265.41
2022-07-28T11:21:11.566Z,101257.38
2022-07-28T11:23:56.236Z,101258.97
2022-07-28T11:26:38.529Z,101244.56
2022-07-28T11:29:23.936Z,101250.28
2022-07-28T11:32:03.494Z,101248.25
2022-07-28T11:35:15.547Z,101250.38
2022-07-28T11:38:13.320Z,101241.25
2022-07-28T11:40:46.013Z,101242.59
2022-07-28T11:43:43.791Z,101243.41
2022-07-28T11:46:25.050Z,101228.78
2022-07-28T11:49:25.237Z,101254.56
2022-07-28T11:52:24.669Z,101256.25
2022-07-28T11:54:58.545Z,101240.69
2022-07-28T11:57:28.862Z,101243.50
2022-07-28T12:00:02.848Z,101251.75
2022-07-28T12:02:36.405Z,101243.47
2022-07-28T12:05:13.097Z,101249.16
2022-07-28T12:07:51.845Z,101245.56
2022-07-28T12:13:28.867Z,101256.38
2022-07-28T12:15:59.732Z,101237.84
2022-07-28T12:18:29.765Z,101252.31
2022-07-28T12:21:04.946Z,101248.00
2022-07-28T12:23:38.942Z,101248.63
2022-07-28T12:26:31.217Z,101237.34
2022-07-28T12:29:01.394Z,101242.19
2022-07-28T12:31:33.428Z,101240.38
2022-07-28T12:34:03.085Z,101251.41
2022-07-28T12:36:32.239Z,101255.94
2022-07-28T12:39:01.885Z,101242.50
2022-07-28T12:41:35.309Z,101241.53
2022-07-28T12:44:06.903Z,101240.81
2022-07-28T12:46:38.032Z,101237.19
2022-07-28T12:49:22.741Z,101241.81
2022-07-28T12:51:52.241Z,101236.63
2022-07-28T12:54:37.087Z,101238.53
2022-07-28T12:57:06.645Z,101234.34
2022-07-28T12:59:38.440Z,101236.09
2022-07-28T13:02:09.590Z,101234.25
2022-07-28T13:04:42.685Z,101227.88
2022-07-28T13:07:14.823Z,101240.69
2022-07-28T13:09:53.202Z,101244.25
2022-07-28T13:12:31.652Z,101250.59
2022-07-28T13:15:02.908Z,101240.16
2022-07-28T13:17:52.575Z,101247.69
2022-07-28T13:20:24.586Z,101248.75
2022-07-28T13:22:54.972Z,101241.13
2022-07-28T13:25:24.523Z,101237.53
2022-07-28T13:27:55.553Z,101241.13
2022-07-28T13:30:25.484Z,101241.97
2022-07-28T13:32:56.831Z,101242.75
2022-07-28T13:35:26.329Z,101247.94
2022-07-28T13:37:55.489Z,101254.00
2022-07-28T13:40:24.895Z,101254.16
2022-07-28T13:42:56.843Z,101248.59
2022-07-28T13:45:30.327Z,101247.00
2022-07-28T13:48:01.387Z,101248.22
2022-07-28T13:50:30.828Z,101246.22
2022-07-28T13:53:00.033Z,101247.00
2022-07-28T13:55:30.939Z,101241.72
2022-07-28T13:58:00.609Z,101252.88
2022-07-28T14:00:31.165Z,101246.81
2022-07-28T14:03:02.378Z,101253.94
2022-07-28T14:05:32.542Z,101260.38
2022-07-28T14:08:03.085Z,101241.53
2022-07-28T14:10:32.492Z,101249.91
2022-07-28T14:13:01.990Z,101262.81
2022-07-28T14:15:31.335Z,101263.25
2022-07-28T14:18:01.957Z,101250.50
2022-07-28T14:20:31.413Z,101262.91
2022-07-28T14:23:01.782Z,101252.09
2022-07-28T14:25:48.221Z,101254.00
2022-07-28T14:28:18.674Z,101249.50
2022-07-28T14:30:47.849Z,101254.22
2022-07-28T14:33:19.486Z,101258.88
2022-07-28T14:35:48.961Z,101265.13
2022-07-28T14:41:07.378Z,101266.28
2022-07-28T14:43:36.643Z,101264.34
2022-07-28T14:46:16.353Z,101262.34
2022-07-28T14:48:52.282Z,101232.31
2022-07-28T14:51:21.577Z,101253.56
2022-07-28T14:53:52.108Z,101252.31
2022-07-28T14:56:21.564Z,101254.25
2022-07-28T14:58:50.840Z,101249.41
2022-07-28T15:01:20.148Z,101250.53
2022-07-28T15:03:49.423Z,101253.78
2022-07-28T15:06:19.959Z,101248.88
2022-07-28T15:08:49.271Z,101251.59
2022-07-28T15:11:18.503Z,101250.81
2022-07-28T15:13:47.757Z,101251.59
2022-07-28T15:16:17.532Z,101226.25
2022-07-28T15:18:46.750Z,101250.69
2022-07-28T15:21:17.336Z,101234.25
2022-07-28T15:23:48.580Z,101250.69
2022-07-28T15:26:17.846Z,101239.31
2022-07-28T15:28:48.645Z,101250.25
2022-07-28T15:31:19.860Z,101239.47
2022-07-28T15:33:54.876Z,101242.28
2022-07-28T15:36:27.778Z,101237.84
2022-07-28T15:38:58.365Z,101238.38
2022-07-28T15:41:28.565Z,101240.03
2022-07-28T15:43:57.854Z,101242.81
2022-07-28T15:46:27.408Z,101239.69
2022-07-28T15:48:57.059Z,101242.81
2022-07-28T15:51:27.094Z,101250.34
2022-07-28T15:54:00.996Z,101245.91
2022-07-28T15:56:31.763Z,101239.88
2022-07-28T15:59:02.088Z,101243.50
2022-07-28T16:01:31.519Z,101233.13
2022-07-28T16:04:02.212Z,101242.00
2022-07-28T16:06:45.989Z,101250.06
2022-07-28T16:09:16.751Z,101252.16
2022-07-28T16:11:46.094Z,101242.28
2022-07-28T16:14:15.757Z,101243.81
2022-07-28T16:16:45.543Z,101261.38
2022-07-28T16:19:46.158Z,101256.19
2022-07-28T16:22:05.209Z,101252.13
2022-07-28T16:24:35.841Z,101260.81
2022-07-28T16:27:05.322Z,101237.84
2022-07-28T16:29:35.670Z,101260.91
2022-07-28T16:32:07.913Z,101264.06
2022-07-28T16:34:37.124Z,101259.59
2022-07-28T16:37:06.551Z,101267.88
2022-07-28T16:39:37.228Z,101267.78
2022-07-28T16:42:07.478Z,101272.81
2022-07-28T16:44:37.752Z,101266.63
2022-07-28T16:47:07.250Z,101267.97
2022-07-28T16:49:38.051Z,101248.91
2022-07-28T16:52:10.264Z,101266.72
2022-07-28T16:54:40.943Z,101260.22
2022-07-28T16:57:10.294Z,101260.78
2022-07-28T16:59:47.937Z,101264.94
2022-07-28T17:02:19.247Z,101269.00
2022-07-28T17:04:48.966Z,101266.44
2022-07-28T17:07:18.595Z,101272.72
2022-07-28T17:09:49.210Z,101256.09
2022-07-28T17:12:18.492Z,101251.56
2022-07-28T17:14:48.052Z,101265.47
2022-07-28T17:17:17.319Z,101223.94
2022-07-28T17:19:48.112Z,101252.75
2022-07-28T17:22:18.361Z,101252.47
2022-07-28T17:24:49.460Z,101249.59
2022-07-28T17:30:10.128Z,101260.81
2022-07-28T17:32:39.463Z,101231.09
2022-07-28T17:35:34.611Z,101264.44
2022-07-28T17:38:01.456Z,101274.25
2022-07-28T17:40:32.690Z,101261.94
2022-07-28T17:43:01.987Z,101254.47
2022-07-28T17:45:31.496Z,101267.34
2022-07-28T17:48:00.904Z,101270.13
2022-07-28T17:50:30.992Z,101240.03
2022-07-28T17:53:01.821Z,101268.28
2022-07-28T17:55:39.199Z,101262.19
2022-07-28T17:58:29.300Z,101262.25
2022-07-28T18:01:10.946Z,101260.91
2022-07-28T18:03:57.608Z,101254.09
2022-07-28T18:06:32.868Z,101260.09
2022-07-28T18:09:06.854Z,101274.94
2022-07-28T18:11:57.332Z,101280.19
2022-07-28T18:14:29.987Z,101268.56
2022-07-28T18:17:00.293Z,101278.22
2022-07-28T18:19:30.878Z,101275.34
2022-07-28T18:22:00.252Z,101283.84
2022-07-28T18:24:29.881Z,101245.47
2022-07-28T18:27:00.598Z,101266.56
2022-07-28T18:29:38.203Z,101274.69
2022-07-28T18:32:09.918Z,101279.66
2022-07-28T18:34:41.348Z,101264.56
2022-07-28T18:37:10.735Z,101264.13
2022-07-28T18:39:40.280Z,101262.22
2022-07-28T18:42:11.929Z,101269.44
2022-07-28T18:44:41.475Z,101279.84
2022-07-28T18:47:11.081Z,101256.22
2022-07-28T18:49:40.587Z,101287.06
2022-07-28T18:52:10.485Z,101274.47
2022-07-28T18:54:39.788Z,101261.19
2022-07-28T18:57:10.604Z,101275.34
2022-07-28T18:59:44.582Z,101289.38
2022-07-28T19:02:16.209Z,101283.25
2022-07-28T19:04:47.215Z,101287.28
2022-07-28T19:07:17.225Z,101290.78
2022-07-28T19:09:46.514Z,101290.63
2022-07-28T19:12:20.148Z,101290.97
2022-07-28T19:14:49.422Z,101287.19
2022-07-28T19:17:20.745Z,101299.47
2022-07-28T19:19:56.160Z,101254.72
2022-07-28T19:22:25.688Z,101297.25
2022-07-28T19:24:55.325Z,101302.69
2022-07-28T19:27:26.067Z,101292.84
2022-07-28T19:30:00.110Z,101292.75
2022-07-28T19:32:29.365Z,101302.22
2022-07-28T19:34:59.402Z,101299.94
2022-07-28T19:37:28.943Z,101308.97
2022-07-28T19:39:58.139Z,101308.03
2022-07-28T19:42:31.543Z,101303.03
2022-07-28T19:45:01.744Z,101309.34
2022-07-28T19:47:31.271Z,101314.47
2022-07-28T19:50:00.752Z,101300.41
2022-07-28T19:52:30.314Z,101311.91
2022-07-28T19:55:00.471Z,101312.97
2022-07-28T19:57:31.102Z,101304.84
2022-07-28T20:00:02.203Z,101293.78
2022-07-28T20:02:41.284Z,101317.19
2022-07-28T20:05:11.907Z,101292.63
2022-07-28T20:07:41.357Z,101317.03
2022-07-28T20:10:11.197Z,101317.03
2022-07-28T20:12:42.508Z,101309.88
2022-07-28T20:15:13.160Z,101324.19
2022-07-28T20:17:42.828Z,101317.78
2022-07-28T20:20:14.727Z,101322.59
2022-07-28T20:22:44.568Z,101326.75
2022-07-28T20:25:14.777Z,101324.22
2022-07-28T20:27:45.963Z,101329.34
2022-07-28T20:30:15.537Z,101321.94
2022-07-28T20:32:45.544Z,101338.31
2022-07-28T20:35:15.338Z,101342.97
2022-07-28T20:37:45.205Z,101330.75
2022-07-28T20:40:14.597Z,101347.00
2022-07-28T20:42:49.808Z,101352.28
2022-07-28T20:45:22.950Z,101355.31
2022-07-28T20:47:52.583Z,101352.00
2022-07-28T20:50:22.141Z,101360.16
2022-07-28T20:52:51.925Z,101358.38
2022-07-28T20:55:21.932Z,101372.56
2022-07-28T20:57:55.953Z,101360.47
2022-07-28T21:00:26.653Z,101356.19
2022-07-28T21:02:56.099Z,101362.75
2022-07-28T21:05:35.059Z,101380.63
2022-07-28T21:08:09.546Z,101383.22
2022-07-28T21:10:46.671Z,101384.31
2022-07-28T21:13:18.744Z,101390.19
2022-07-28T21:15:48.203Z,101381.34
2022-07-28T21:18:18.556Z,101392.88
2022-07-28T21:20:48.012Z,101385.88
2022-07-28T21:23:19.171Z,101395.56
2022-07-28T21:25:51.412Z,101391.50
2022-07-28T21:28:39.502Z,101388.53
2022-07-28T21:31:09.978Z,101383.50
2022-07-28T21:33:39.445Z,101382.47
2022-07-28T21:36:09.665Z,101393.66
2022-07-28T21:38:39.625Z,101392.41
2022-07-28T21:41:09.016Z,101380.19
2022-07-28T21:43:40.123Z,101387.34
2022-07-28T21:46:11.797Z,101394.03
2022-07-28T21:48:41.356Z,101391.53
2022-07-28T21:51:18.248Z,101390.75
2022-07-28T21:53:52.705Z,101391.44
2022-07-28T21:56:22.242Z,101387.59
2022-07-28T21:58:53.275Z,101389.50
2022-07-28T22:01:24.015Z,101396.63
2022-07-28T22:03:53.358Z,101398.97
2022-07-28T22:06:23.217Z,101383.28
2022-07-28T22:08:54.683Z,101389.50
2022-07-28T22:11:24.270Z,101386.66
2022-07-28T22:13:55.062Z,101351.16
2022-07-28T22:16:24.443Z,101341.38
2022-07-28T22:18:53.832Z,101395.31
2022-07-28T22:21:23.137Z,101365.09
2022-07-28T22:23:52.678Z,101384.59
2022-07-28T22:26:21.970Z,101393.94
2022-07-28T22:28:51.434Z,101386.34
2022-07-28T22:31:22.444Z,101388.63
2022-07-28T22:33:52.136Z,101337.72
2022-07-28T22:36:21.549Z,101377.81
2022-07-28T22:38:50.966Z,101350.47
2022-07-28T22:41:20.306Z,101329.88
2022-07-28T22:43:49.722Z,101369.75
2022-07-28T22:46:19.272Z,101375.06
2022-07-28T22:48:50.539Z,101374.47
2022-07-28T22:51:19.963Z,101380.38
2022-07-28T22:53:49.542Z,101381.53
2022-07-28T22:56:19.763Z,101385.69
2022-07-28T22:58:49.229Z,101387.09
2022-07-28T23:01:18.873Z,101383.03
2022-07-28T23:03:49.855Z,101354.88
2022-07-28T23:06:20.334Z,101382.94
2022-07-28T23:08:49.988Z,101379.22
2022-07-28T23:11:19.352Z,101374.41
2022-07-28T23:13:48.773Z,101380.75
2022-07-28T23:16:18.325Z,101364.78
2022-07-28T23:18:47.758Z,101379.94
2022-07-28T23:21:18.434Z,101369.75
2022-07-28T23:23:47.954Z,101373.34
2022-07-28T23:26:17.413Z,101371.38
2022-07-28T23:28:46.734Z,101370.56
2022-07-28T23:31:16.137Z,101371.28
2022-07-28T23:33:55.021Z,101368.38
2022-07-28T23:36:28.317Z,101382.66
2022-07-28T23:38:59.604Z,101371.84
2022-07-28T23:41:29.293Z,101380.94
2022-07-28T23:43:58.729Z,101365.94
2022-07-28T23:46:28.119Z,101371.16
2022-07-28T23:48:57.716Z,101375.28
2022-07-28T23:51:47.179Z,101364.44
2022-07-28T23:54:18.170Z,101359.81
2022-07-28T23:56:48.101Z,101364.88
2022-07-28T23:59:17.789Z,101383.34
